sensor_id;sensor_type;location;lat;lon;timestamp;P1;durP1;ratioP1;P2;durP2;ratioP2
19161;SDS011;9713;48.140;11.530;2023-03-01T00:01:17;28.57;;;15.43;;
19161;SDS011;9713;48.140;11.530;2023-03-01T00:05:00;26.67;;;15.13;;
19161;SDS011;9713;48.140;11.530;2023-03-01T00:08:43;29.23;;;16.20;;
19161;SDS011;9713;48.140;11.530;2023-03-01T00:12:27;28.57;;;15.30;;
19161;SDS011;9713;48.140;11.530;2023-03-01T00:16:12;27.13;;;15.20;;
19161;SDS011;9713;48.140;11.530;2023-03-01T00:19:56;27.17;;;15.67;;
19161;SDS011;9713;48.140;11.530;2023-03-01T00:23:39;26.90;;;15.73;;
19161;SDS011;9713;48.140;11.530;2023-03-01T00:27:22;27.53;;;15.13;;
19161;SDS011;9713;48.140;11.530;2023-03-01T00:31:06;30.30;;;15.83;;
19161;SDS011;9713;48.140;11.530;2023-03-01T00:34:51;26.53;;;14.77;;
19161;SDS011;9713;48.140;11.530;2023-03-01T00:38:36;29.03;;;15.40;;
19161;SDS011;9713;48.140;11.530;2023-03-01T00:42:19;29.03;;;16.20;;
19161;SDS011;9713;48.140;11.530;2023-03-01T00:46:03;29.67;;;16.07;;
19161;SDS011;9713;48.140;11.530;2023-03-01T00:49:48;25.70;;;14.83;;
19161;SDS011;9713;48.140;11.530;2023-03-01T00:53:31;28.40;;;15.83;;
19161;SDS011;9713;48.140;11.530;2023-03-01T00:57:14;31.33;;;15.67;;
19161;SDS011;9713;48.140;11.530;2023-03-01T01:00:56;26.70;;;15.43;;
19161;SDS011;9713;48.140;11.530;2023-03-01T01:04:41;29.57;;;15.73;;
19161;SDS011;9713;48.140;11.530;2023-03-01T01:08:25;30.00;;;16.07;;
19161;SDS011;9713;48.140;11.530;2023-03-01T01:12:08;30.07;;;15.67;;
19161;SDS011;9713;48.140;11.530;2023-03-01T01:15:51;29.47;;;15.60;;
19161;SDS011;9713;48.140;11.530;2023-03-01T01:19:34;30.47;;;16.37;;
19161;SDS011;9713;48.140;11.530;2023-03-01T01:23:17;31.23;;;15.83;;
19161;SDS011;9713;48.140;11.530;2023-03-01T01:27:01;28.90;;;15.10;;
19161;SDS011;9713;48.140;11.530;2023-03-01T01:30:44;30.47;;;16.63;;
19161;SDS011;9713;48.140;11.530;2023-03-01T01:34:26;32.33;;;15.60;;
19161;SDS011;9713;48.140;11.530;2023-03-01T01:38:09;28.63;;;15.47;;
19161;SDS011;9713;48.140;11.530;2023-03-01T01:41:52;29.93;;;16.00;;
19161;SDS011;9713;48.140;11.530;2023-03-01T01:45:36;28.07;;;15.27;;
19161;SDS011;9713;48.140;11.530;2023-03-01T01:49:22;28.70;;;16.23;;
19161;SDS011;9713;48.140;11.530;2023-03-01T01:53:09;28.57;;;15.67;;
19161;SDS011;9713;48.140;11.530;2023-03-01T01:56:55;32.00;;;15.23;;
19161;SDS011;9713;48.140;11.530;2023-03-01T02:00:41;31.00;;;15.73;;
19161;SDS011;9713;48.140;11.530;2023-03-01T02:04:24;29.23;;;15.87;;
19161;SDS011;9713;48.140;11.530;2023-03-01T02:08:07;26.23;;;14.93;;
19161;SDS011;9713;48.140;11.530;2023-03-01T02:11:51;30.97;;;16.23;;
19161;SDS011;9713;48.140;11.530;2023-03-01T02:15:35;28.80;;;15.63;;
19161;SDS011;9713;48.140;11.530;2023-03-01T02:19:25;30.33;;;16.90;;
19161;SDS011;9713;48.140;11.530;2023-03-01T02:23:15;33.23;;;17.20;;
19161;SDS011;9713;48.140;11.530;2023-03-01T02:26:59;27.53;;;15.43;;
19161;SDS011;9713;48.140;11.530;2023-03-01T02:30:44;28.83;;;15.13;;
19161;SDS011;9713;48.140;11.530;2023-03-01T02:34:42;29.63;;;15.97;;
19161;SDS011;9713;48.140;11.530;2023-03-01T02:38:25;30.80;;;16.27;;
19161;SDS011;9713;48.140;11.530;2023-03-01T02:42:09;27.87;;;16.37;;
19161;SDS011;9713;48.140;11.530;2023-03-01T02:45:57;31.60;;;16.23;;
19161;SDS011;9713;48.140;11.530;2023-03-01T02:49:42;28.23;;;15.67;;
19161;SDS011;9713;48.140;11.530;2023-03-01T02:53:27;32.20;;;16.60;;
19161;SDS011;9713;48.140;11.530;2023-03-01T02:57:10;31.10;;;16.20;;
19161;SDS011;9713;48.140;11.530;2023-03-01T03:00:55;27.77;;;15.13;;
19161;SDS011;9713;48.140;11.530;2023-03-01T03:04:42;31.50;;;16.33;;
19161;SDS011;9713;48.140;11.530;2023-03-01T03:08:25;28.77;;;15.43;;
19161;SDS011;9713;48.140;11.530;2023-03-01T03:12:08;31.40;;;16.00;;
19161;SDS011;9713;48.140;11.530;2023-03-01T03:15:51;32.63;;;16.27;;
19161;SDS011;9713;48.140;11.530;2023-03-01T03:19:35;27.47;;;15.27;;
19161;SDS011;9713;48.140;11.530;2023-03-01T03:23:18;27.57;;;15.43;;
19161;SDS011;9713;48.140;11.530;2023-03-01T03:27:01;31.73;;;15.67;;
19161;SDS011;9713;48.140;11.530;2023-03-01T03:30:43;29.03;;;15.90;;
19161;SDS011;9713;48.140;11.530;2023-03-01T03:34:27;32.23;;;16.03;;
19161;SDS011;9713;48.140;11.530;2023-03-01T03:38:13;28.97;;;16.17;;
19161;SDS011;9713;48.140;11.530;2023-03-01T03:42:00;27.73;;;15.47;;
19161;SDS011;9713;48.140;11.530;2023-03-01T03:45:45;25.83;;;15.30;;
19161;SDS011;9713;48.140;11.530;2023-03-01T03:49:27;29.23;;;16.13;;
19161;SDS011;9713;48.140;11.530;2023-03-01T03:53:11;29.00;;;15.50;;
19161;SDS011;9713;48.140;11.530;2023-03-01T03:56:55;26.40;;;15.20;;
19161;SDS011;9713;48.140;11.530;2023-03-01T04:00:39;31.87;;;16.77;;
19161;SDS011;9713;48.140;11.530;2023-03-01T04:04:23;31.07;;;16.43;;
19161;SDS011;9713;48.140;11.530;2023-03-01T04:08:07;31.03;;;16.57;;
19161;SDS011;9713;48.140;11.530;2023-03-01T04:11:53;30.57;;;16.23;;
19161;SDS011;9713;48.140;11.530;2023-03-01T04:15:36;30.47;;;15.87;;
19161;SDS011;9713;48.140;11.530;2023-03-01T04:19:19;26.60;;;15.30;;
19161;SDS011;9713;48.140;11.530;2023-03-01T04:23:03;32.03;;;16.13;;
19161;SDS011;9713;48.140;11.530;2023-03-01T04:26:55;28.47;;;15.40;;
19161;SDS011;9713;48.140;11.530;2023-03-01T04:30:38;33.13;;;16.93;;
19161;SDS011;9713;48.140;11.530;2023-03-01T04:34:22;32.00;;;16.47;;
19161;SDS011;9713;48.140;11.530;2023-03-01T04:38:08;30.30;;;15.97;;
19161;SDS011;9713;48.140;11.530;2023-03-01T04:41:51;30.13;;;16.80;;
19161;SDS011;9713;48.140;11.530;2023-03-01T04:45:35;30.97;;;16.47;;
19161;SDS011;9713;48.140;11.530;2023-03-01T04:49:18;33.67;;;17.30;;
19161;SDS011;9713;48.140;11.530;2023-03-01T04:53:01;30.90;;;16.43;;
19161;SDS011;9713;48.140;11.530;2023-03-01T04:56:44;34.20;;;15.73;;
19161;SDS011;9713;48.140;11.530;2023-03-01T05:00:27;32.93;;;17.33;;
19161;SDS011;9713;48.140;11.530;2023-03-01T05:04:11;31.63;;;16.60;;
19161;SDS011;9713;48.140;11.530;2023-03-01T05:07:55;33.40;;;16.73;;
19161;SDS011;9713;48.140;11.530;2023-03-01T05:11:41;35.70;;;16.57;;
19161;SDS011;9713;48.140;11.530;2023-03-01T05:15:24;32.63;;;17.50;;
19161;SDS011;9713;48.140;11.530;2023-03-01T05:19:07;33.03;;;17.00;;
19161;SDS011;9713;48.140;11.530;2023-03-01T05:22:58;30.43;;;16.00;;
19161;SDS011;9713;48.140;11.530;2023-03-01T05:26:46;36.73;;;16.33;;
19161;SDS011;9713;48.140;11.530;2023-03-01T05:30:29;31.57;;;16.40;;
19161;SDS011;9713;48.140;11.530;2023-03-01T05:34:15;35.20;;;17.03;;
19161;SDS011;9713;48.140;11.530;2023-03-01T05:37:59;32.70;;;17.27;;
19161;SDS011;9713;48.140;11.530;2023-03-01T05:41:41;33.77;;;16.83;;
19161;SDS011;9713;48.140;11.530;2023-03-01T05:45:24;32.03;;;17.00;;
19161;SDS011;9713;48.140;11.530;2023-03-01T05:49:08;29.57;;;15.80;;
19161;SDS011;9713;48.140;11.530;2023-03-01T05:52:51;29.63;;;16.63;;
19161;SDS011;9713;48.140;11.530;2023-03-01T05:56:40;34.73;;;17.50;;
19161;SDS011;9713;48.140;11.530;2023-03-01T06:00:22;30.50;;;16.57;;
19161;SDS011;9713;48.140;11.530;2023-03-01T06:04:05;35.90;;;17.63;;
19161;SDS011;9713;48.140;11.530;2023-03-01T06:07:48;30.37;;;16.47;;
19161;SDS011;9713;48.140;11.530;2023-03-01T06:11:33;32.07;;;16.33;;
19161;SDS011;9713;48.140;11.530;2023-03-01T06:15:17;33.63;;;17.27;;
19161;SDS011;9713;48.140;11.530;2023-03-01T06:19:00;32.37;;;17.20;;
19161;SDS011;9713;48.140;11.530;2023-03-01T06:22:43;30.97;;;16.37;;
19161;SDS011;9713;48.140;11.530;2023-03-01T06:26:26;33.73;;;17.27;;
19161;SDS011;9713;48.140;11.530;2023-03-01T06:30:10;31.40;;;16.67;;
19161;SDS011;9713;48.140;11.530;2023-03-01T06:33:58;31.97;;;16.60;;
19161;SDS011;9713;48.140;11.530;2023-03-01T06:37:41;34.73;;;17.47;;
19161;SDS011;9713;48.140;11.530;2023-03-01T06:41:23;34.63;;;17.40;;
19161;SDS011;9713;48.140;11.530;2023-03-01T06:45:07;32.70;;;17.07;;
19161;SDS011;9713;48.140;11.530;2023-03-01T06:48:50;39.47;;;17.10;;
19161;SDS011;9713;48.140;11.530;2023-03-01T06:52:35;30.83;;;16.27;;
19161;SDS011;9713;48.140;11.530;2023-03-01T06:56:17;35.60;;;17.10;;
19161;SDS011;9713;48.140;11.530;2023-03-01T07:00:00;34.17;;;17.17;;
19161;SDS011;9713;48.140;11.530;2023-03-01T07:03:43;36.40;;;17.30;;
19161;SDS011;9713;48.140;11.530;2023-03-01T07:07:25;33.83;;;16.30;;
19161;SDS011;9713;48.140;11.530;2023-03-01T07:11:09;36.67;;;17.07;;
19161;SDS011;9713;48.140;11.530;2023-03-01T07:14:52;34.67;;;17.53;;
19161;SDS011;9713;48.140;11.530;2023-03-01T07:18:35;33.13;;;17.10;;
19161;SDS011;9713;48.140;11.530;2023-03-01T07:22:17;36.67;;;17.40;;
19161;SDS011;9713;48.140;11.530;2023-03-01T07:26:00;31.47;;;17.23;;
19161;SDS011;9713;48.140;11.530;2023-03-01T07:29:44;33.83;;;17.67;;
19161;SDS011;9713;48.140;11.530;2023-03-01T07:33:27;33.80;;;17.33;;
19161;SDS011;9713;48.140;11.530;2023-03-01T07:37:09;32.77;;;16.03;;
19161;SDS011;9713;48.140;11.530;2023-03-01T07:40:52;32.97;;;16.77;;
19161;SDS011;9713;48.140;11.530;2023-03-01T07:44:35;32.17;;;16.83;;
19161;SDS011;9713;48.140;11.530;2023-03-01T07:48:19;36.87;;;17.97;;
19161;SDS011;9713;48.140;11.530;2023-03-01T07:52:01;36.00;;;17.13;;
19161;SDS011;9713;48.140;11.530;2023-03-01T07:55:44;38.17;;;17.10;;
19161;SDS011;9713;48.140;11.530;2023-03-01T07:59:27;32.17;;;17.47;;
19161;SDS011;9713;48.140;11.530;2023-03-01T08:03:10;34.30;;;17.57;;
19161;SDS011;9713;48.140;11.530;2023-03-01T08:06:55;34.20;;;17.43;;
19161;SDS011;9713;48.140;11.530;2023-03-01T08:10:37;36.40;;;18.00;;
19161;SDS011;9713;48.140;11.530;2023-03-01T08:14:20;36.57;;;16.60;;
19161;SDS011;9713;48.140;11.530;2023-03-01T08:18:03;37.57;;;17.47;;
19161;SDS011;9713;48.140;11.530;2023-03-01T08:21:45;34.43;;;17.37;;
19161;SDS011;9713;48.140;11.530;2023-03-01T08:25:29;34.70;;;17.57;;
19161;SDS011;9713;48.140;11.530;2023-03-01T08:29:12;35.00;;;17.67;;
19161;SDS011;9713;48.140;11.530;2023-03-01T08:32:55;33.73;;;17.30;;
19161;SDS011;9713;48.140;11.530;2023-03-01T08:36:38;31.47;;;17.03;;
19161;SDS011;9713;48.140;11.530;2023-03-01T08:40:22;32.77;;;17.33;;
19161;SDS011;9713;48.140;11.530;2023-03-01T08:44:06;33.27;;;16.90;;
19161;SDS011;9713;48.140;11.530;2023-03-01T08:47:51;38.37;;;18.37;;
19161;SDS011;9713;48.140;11.530;2023-03-01T08:51:34;34.60;;;17.97;;
19161;SDS011;9713;48.140;11.530;2023-03-01T08:55:18;33.30;;;17.30;;
19161;SDS011;9713;48.140;11.530;2023-03-01T08:59:01;30.93;;;16.53;;
19161;SDS011;9713;48.140;11.530;2023-03-01T09:02:45;35.10;;;17.30;;
19161;SDS011;9713;48.140;11.530;2023-03-01T09:06:29;33.63;;;17.43;;
19161;SDS011;9713;48.140;11.530;2023-03-01T09:10:13;36.43;;;18.70;;
19161;SDS011;9713;48.140;11.530;2023-03-01T09:13:56;32.30;;;17.83;;
19161;SDS011;9713;48.140;11.530;2023-03-01T09:17:40;34.83;;;18.73;;
19161;SDS011;9713;48.140;11.530;2023-03-01T09:21:24;32.63;;;17.63;;
19161;SDS011;9713;48.140;11.530;2023-03-01T09:25:21;33.33;;;16.80;;
19161;SDS011;9713;48.140;11.530;2023-03-01T09:29:04;35.87;;;17.33;;
19161;SDS011;9713;48.140;11.530;2023-03-01T09:32:47;32.13;;;17.50;;
19161;SDS011;9713;48.140;11.530;2023-03-01T09:36:31;37.53;;;18.47;;
19161;SDS011;9713;48.140;11.530;2023-03-01T09:40:15;35.43;;;17.80;;
19161;SDS011;9713;48.140;11.530;2023-03-01T09:44:00;36.03;;;17.80;;
19161;SDS011;9713;48.140;11.530;2023-03-01T09:47:45;39.13;;;18.10;;
19161;SDS011;9713;48.140;11.530;2023-03-01T09:51:31;35.17;;;17.47;;
19161;SDS011;9713;48.140;11.530;2023-03-01T09:55:16;30.77;;;16.47;;
19161;SDS011;9713;48.140;11.530;2023-03-01T09:59:05;34.97;;;17.50;;
19161;SDS011;9713;48.140;11.530;2023-03-01T10:02:57;32.03;;;16.50;;
19161;SDS011;9713;48.140;11.530;2023-03-01T10:06:46;38.73;;;19.23;;
19161;SDS011;9713;48.140;11.530;2023-03-01T10:10:37;32.47;;;17.77;;
19161;SDS011;9713;48.140;11.530;2023-03-01T10:14:24;32.63;;;17.10;;
19161;SDS011;9713;48.140;11.530;2023-03-01T10:18:12;35.47;;;17.43;;
19161;SDS011;9713;48.140;11.530;2023-03-01T10:22:00;36.30;;;18.17;;
19161;SDS011;9713;48.140;11.530;2023-03-01T10:25:47;33.03;;;17.57;;
19161;SDS011;9713;48.140;11.530;2023-03-01T10:29:42;32.07;;;16.77;;
19161;SDS011;9713;48.140;11.530;2023-03-01T10:33:28;32.43;;;16.73;;
19161;SDS011;9713;48.140;11.530;2023-03-01T10:37:14;34.80;;;17.10;;
19161;SDS011;9713;48.140;11.530;2023-03-01T10:40:59;36.57;;;17.50;;
19161;SDS011;9713;48.140;11.530;2023-03-01T10:44:48;34.67;;;17.53;;
19161;SDS011;9713;48.140;11.530;2023-03-01T10:48:31;38.83;;;19.00;;
19161;SDS011;9713;48.140;11.530;2023-03-01T10:52:18;35.77;;;19.17;;
19161;SDS011;9713;48.140;11.530;2023-03-01T10:56:03;38.33;;;19.73;;
19161;SDS011;9713;48.140;11.530;2023-03-01T10:59:51;38.07;;;19.60;;
19161;SDS011;9713;48.140;11.530;2023-03-01T11:03:44;36.23;;;18.37;;
19161;SDS011;9713;48.140;11.530;2023-03-01T11:07:28;34.50;;;18.90;;
19161;SDS011;9713;48.140;11.530;2023-03-01T11:15:21;33.67;;;18.10;;
19161;SDS011;9713;48.140;11.530;2023-03-01T11:19:16;36.27;;;19.60;;
19161;SDS011;9713;48.140;11.530;2023-03-01T11:23:03;37.53;;;19.53;;
19161;SDS011;9713;48.140;11.530;2023-03-01T11:26:50;34.90;;;18.00;;
19161;SDS011;9713;48.140;11.530;2023-03-01T11:30:35;33.53;;;18.17;;
19161;SDS011;9713;48.140;11.530;2023-03-01T11:34:23;36.17;;;20.03;;
19161;SDS011;9713;48.140;11.530;2023-03-01T11:38:21;38.70;;;20.53;;
19161;SDS011;9713;48.140;11.530;2023-03-01T11:42:05;37.13;;;20.10;;
19161;SDS011;9713;48.140;11.530;2023-03-01T11:46:06;38.20;;;20.70;;
19161;SDS011;9713;48.140;11.530;2023-03-01T11:50:08;35.47;;;19.87;;
19161;SDS011;9713;48.140;11.530;2023-03-01T11:54:01;37.97;;;20.57;;
19161;SDS011;9713;48.140;11.530;2023-03-01T11:57:52;37.10;;;19.77;;
19161;SDS011;9713;48.140;11.530;2023-03-01T12:01:49;37.70;;;20.57;;
19161;SDS011;9713;48.140;11.530;2023-03-01T12:05:50;39.10;;;20.93;;
19161;SDS011;9713;48.140;11.530;2023-03-01T12:09:45;37.87;;;20.57;;
19161;SDS011;9713;48.140;11.530;2023-03-01T12:17:59;35.73;;;19.77;;
19161;SDS011;9713;48.140;11.530;2023-03-01T12:22:00;36.47;;;20.17;;
19161;SDS011;9713;48.140;11.530;2023-03-01T12:25:50;35.40;;;19.33;;
19161;SDS011;9713;48.140;11.530;2023-03-01T12:29:38;38.83;;;20.97;;
19161;SDS011;9713;48.140;11.530;2023-03-01T12:33:26;34.60;;;19.53;;
19161;SDS011;9713;48.140;11.530;2023-03-01T12:37:17;34.73;;;20.03;;
19161;SDS011;9713;48.140;11.530;2023-03-01T12:41:10;42.23;;;20.77;;
19161;SDS011;9713;48.140;11.530;2023-03-01T12:49:09;36.17;;;18.17;;
19161;SDS011;9713;48.140;11.530;2023-03-01T12:52:55;37.27;;;20.20;;
19161;SDS011;9713;48.140;11.530;2023-03-01T12:56:40;45.00;;;20.67;;
19161;SDS011;9713;48.140;11.530;2023-03-01T13:00:25;34.33;;;19.23;;
19161;SDS011;9713;48.140;11.530;2023-03-01T13:08:19;33.97;;;18.70;;
19161;SDS011;9713;48.140;11.530;2023-03-01T13:12:14;31.90;;;18.77;;
19161;SDS011;9713;48.140;11.530;2023-03-01T13:16:40;31.60;;;19.17;;
19161;SDS011;9713;48.140;11.530;2023-03-01T13:20:27;34.67;;;20.13;;
19161;SDS011;9713;48.140;11.530;2023-03-01T13:24:26;35.67;;;19.43;;
19161;SDS011;9713;48.140;11.530;2023-03-01T13:32:44;32.30;;;19.20;;
19161;SDS011;9713;48.140;11.530;2023-03-01T13:40:58;36.03;;;19.63;;
19161;SDS011;9713;48.140;11.530;2023-03-01T13:44:42;48.37;;;23.73;;
19161;SDS011;9713;48.140;11.530;2023-03-01T13:48:27;31.93;;;19.20;;
19161;SDS011;9713;48.140;11.530;2023-03-01T13:56:21;42.03;;;21.60;;
19161;SDS011;9713;48.140;11.530;2023-03-01T14:00:07;32.67;;;20.07;;
19161;SDS011;9713;48.140;11.530;2023-03-01T14:04:18;31.93;;;19.87;;
19161;SDS011;9713;48.140;11.530;2023-03-01T14:08:03;31.37;;;19.00;;
19161;SDS011;9713;48.140;11.530;2023-03-01T14:15:50;32.20;;;20.07;;
19161;SDS011;9713;48.140;11.530;2023-03-01T14:19:41;35.03;;;20.37;;
19161;SDS011;9713;48.140;11.530;2023-03-01T14:23:26;33.27;;;19.43;;
19161;SDS011;9713;48.140;11.530;2023-03-01T14:27:10;34.40;;;20.30;;
19161;SDS011;9713;48.140;11.530;2023-03-01T14:30:54;32.93;;;19.57;;
19161;SDS011;9713;48.140;11.530;2023-03-01T14:34:43;31.80;;;19.43;;
19161;SDS011;9713;48.140;11.530;2023-03-01T14:38:31;30.10;;;18.80;;
19161;SDS011;9713;48.140;11.530;2023-03-01T14:42:15;29.87;;;18.60;;
19161;SDS011;9713;48.140;11.530;2023-03-01T14:45:59;33.60;;;19.90;;
19161;SDS011;9713;48.140;11.530;2023-03-01T14:49:54;31.93;;;19.00;;
19161;SDS011;9713;48.140;11.530;2023-03-01T14:53:41;31.67;;;18.50;;
19161;SDS011;9713;48.140;11.530;2023-03-01T14:57:31;29.73;;;18.83;;
19161;SDS011;9713;48.140;11.530;2023-03-01T15:01:14;29.03;;;18.23;;
19161;SDS011;9713;48.140;11.530;2023-03-01T15:05:00;33.97;;;19.23;;
19161;SDS011;9713;48.140;11.530;2023-03-01T15:08:50;32.03;;;18.53;;
19161;SDS011;9713;48.140;11.530;2023-03-01T15:12:35;35.13;;;20.00;;
19161;SDS011;9713;48.140;11.530;2023-03-01T15:16:20;26.03;;;16.20;;
19161;SDS011;9713;48.140;11.530;2023-03-01T15:20:06;29.27;;;17.13;;
19161;SDS011;9713;48.140;11.530;2023-03-01T15:24:00;29.27;;;17.33;;
19161;SDS011;9713;48.140;11.530;2023-03-01T15:27:45;30.20;;;16.87;;
19161;SDS011;9713;48.140;11.530;2023-03-01T15:31:29;28.70;;;16.17;;
19161;SDS011;9713;48.140;11.530;2023-03-01T15:35:37;28.60;;;16.67;;
19161;SDS011;9713;48.140;11.530;2023-03-01T15:39:26;28.10;;;15.97;;
19161;SDS011;9713;48.140;11.530;2023-03-01T15:47:28;29.03;;;16.13;;
19161;SDS011;9713;48.140;11.530;2023-03-01T15:51:13;33.83;;;16.73;;
19161;SDS011;9713;48.140;11.530;2023-03-01T15:54:57;32.50;;;17.67;;
19161;SDS011;9713;48.140;11.530;2023-03-01T15:58:40;27.47;;;16.47;;
19161;SDS011;9713;48.140;11.530;2023-03-01T16:02:23;29.47;;;17.20;;
19161;SDS011;9713;48.140;11.530;2023-03-01T16:06:08;26.63;;;16.07;;
19161;SDS011;9713;48.140;11.530;2023-03-01T16:09:53;28.53;;;16.07;;
19161;SDS011;9713;48.140;11.530;2023-03-01T16:13:36;28.90;;;15.77;;
19161;SDS011;9713;48.140;11.530;2023-03-01T16:17:18;25.70;;;15.47;;
19161;SDS011;9713;48.140;11.530;2023-03-01T16:21:01;26.90;;;16.77;;
19161;SDS011;9713;48.140;11.530;2023-03-01T16:24:44;31.63;;;15.67;;
19161;SDS011;9713;48.140;11.530;2023-03-01T16:28:28;26.30;;;14.83;;
19161;SDS011;9713;48.140;11.530;2023-03-01T16:32:10;23.67;;;13.97;;
19161;SDS011;9713;48.140;11.530;2023-03-01T16:35:53;26.37;;;14.53;;
19161;SDS011;9713;48.140;11.530;2023-03-01T16:39:37;26.87;;;15.07;;
19161;SDS011;9713;48.140;11.530;2023-03-01T16:43:20;28.83;;;15.63;;
19161;SDS011;9713;48.140;11.530;2023-03-01T16:47:04;25.93;;;14.37;;
19161;SDS011;9713;48.140;11.530;2023-03-01T16:50:55;24.93;;;14.30;;
19161;SDS011;9713;48.140;11.530;2023-03-01T16:54:38;27.87;;;14.23;;
19161;SDS011;9713;48.140;11.530;2023-03-01T16:58:21;24.90;;;13.70;;
19161;SDS011;9713;48.140;11.530;2023-03-01T17:02:08;26.87;;;14.87;;
19161;SDS011;9713;48.140;11.530;2023-03-01T17:05:52;33.20;;;15.33;;
19161;SDS011;9713;48.140;11.530;2023-03-01T17:09:35;29.37;;;15.60;;
19161;SDS011;9713;48.140;11.530;2023-03-01T17:13:18;26.27;;;14.30;;
19161;SDS011;9713;48.140;11.530;2023-03-01T17:17:02;29.90;;;14.50;;
19161;SDS011;9713;48.140;11.530;2023-03-01T17:20:46;37.03;;;18.73;;
19161;SDS011;9713;48.140;11.530;2023-03-01T17:24:31;37.90;;;20.90;;
19161;SDS011;9713;48.140;11.530;2023-03-01T17:28:14;43.17;;;22.47;;
19161;SDS011;9713;48.140;11.530;2023-03-01T17:31:58;40.67;;;21.70;;
19161;SDS011;9713;48.140;11.530;2023-03-01T17:35:41;40.67;;;22.30;;
19161;SDS011;9713;48.140;11.530;2023-03-01T17:39:28;43.00;;;21.40;;
19161;SDS011;9713;48.140;11.530;2023-03-01T17:43:16;45.63;;;22.80;;
19161;SDS011;9713;48.140;11.530;2023-03-01T17:47:02;42.50;;;22.40;;
19161;SDS011;9713;48.140;11.530;2023-03-01T17:50:45;42.83;;;22.97;;
19161;SDS011;9713;48.140;11.530;2023-03-01T17:54:29;49.77;;;24.47;;
19161;SDS011;9713;48.140;11.530;2023-03-01T17:58:13;44.47;;;23.53;;
19161;SDS011;9713;48.140;11.530;2023-03-01T18:01:57;43.33;;;23.17;;
19161;SDS011;9713;48.140;11.530;2023-03-01T18:05:41;43.73;;;23.90;;
19161;SDS011;9713;48.140;11.530;2023-03-01T18:09:25;47.73;;;24.13;;
19161;SDS011;9713;48.140;11.530;2023-03-01T18:13:09;46.57;;;23.50;;
19161;SDS011;9713;48.140;11.530;2023-03-01T18:16:54;43.60;;;24.27;;
19161;SDS011;9713;48.140;11.530;2023-03-01T18:20:37;46.07;;;24.10;;
19161;SDS011;9713;48.140;11.530;2023-03-01T18:24:20;48.87;;;24.03;;
19161;SDS011;9713;48.140;11.530;2023-03-01T18:28:02;47.10;;;24.37;;
19161;SDS011;9713;48.140;11.530;2023-03-01T18:31:46;46.03;;;24.10;;
19161;SDS011;9713;48.140;11.530;2023-03-01T18:35:30;47.63;;;25.07;;
19161;SDS011;9713;48.140;11.530;2023-03-01T18:39:12;49.60;;;25.23;;
19161;SDS011;9713;48.140;11.530;2023-03-01T18:42:57;48.20;;;24.87;;
19161;SDS011;9713;48.140;11.530;2023-03-01T18:46:40;46.57;;;24.27;;
19161;SDS011;9713;48.140;11.530;2023-03-01T18:50:27;47.67;;;23.93;;
19161;SDS011;9713;48.140;11.530;2023-03-01T18:54:10;49.73;;;24.70;;
19161;SDS011;9713;48.140;11.530;2023-03-01T18:57:53;46.00;;;24.57;;
19161;SDS011;9713;48.140;11.530;2023-03-01T19:01:36;51.23;;;26.00;;
19161;SDS011;9713;48.140;11.530;2023-03-01T19:05:19;50.50;;;27.07;;
19161;SDS011;9713;48.140;11.530;2023-03-01T19:09:05;56.13;;;27.07;;
19161;SDS011;9713;48.140;11.530;2023-03-01T19:12:48;54.07;;;28.07;;
19161;SDS011;9713;48.140;11.530;2023-03-01T19:16:31;61.20;;;27.67;;
19161;SDS011;9713;48.140;11.530;2023-03-01T19:20:15;57.93;;;28.77;;
19161;SDS011;9713;48.140;11.530;2023-03-01T19:23:58;59.43;;;29.27;;
19161;SDS011;9713;48.140;11.530;2023-03-01T19:27:43;56.83;;;29.03;;
19161;SDS011;9713;48.140;11.530;2023-03-01T19:31:29;61.27;;;28.33;;
19161;SDS011;9713;48.140;11.530;2023-03-01T19:35:12;58.90;;;29.73;;
19161;SDS011;9713;48.140;11.530;2023-03-01T19:38:54;52.37;;;28.73;;
19161;SDS011;9713;48.140;11.530;2023-03-01T19:42:37;54.67;;;29.03;;
19161;SDS011;9713;48.140;11.530;2023-03-01T19:46:21;57.90;;;28.93;;
19161;SDS011;9713;48.140;11.530;2023-03-01T19:50:04;55.70;;;29.20;;
19161;SDS011;9713;48.140;11.530;2023-03-01T19:53:47;60.10;;;29.53;;
19161;SDS011;9713;48.140;11.530;2023-03-01T19:57:30;54.60;;;28.23;;
19161;SDS011;9713;48.140;11.530;2023-03-01T20:01:13;63.30;;;30.13;;
19161;SDS011;9713;48.140;11.530;2023-03-01T20:04:58;56.47;;;29.50;;
19161;SDS011;9713;48.140;11.530;2023-03-01T20:08:41;58.57;;;28.70;;
19161;SDS011;9713;48.140;11.530;2023-03-01T20:12:24;56.27;;;28.03;;
19161;SDS011;9713;48.140;11.530;2023-03-01T20:16:07;60.87;;;30.03;;
19161;SDS011;9713;48.140;11.530;2023-03-01T20:19:50;57.57;;;29.90;;
19161;SDS011;9713;48.140;11.530;2023-03-01T20:23:34;62.13;;;30.03;;
19161;SDS011;9713;48.140;11.530;2023-03-01T20:27:17;58.20;;;29.63;;
19161;SDS011;9713;48.140;11.530;2023-03-01T20:31:03;59.90;;;28.87;;
19161;SDS011;9713;48.140;11.530;2023-03-01T20:34:47;61.20;;;26.53;;
19161;SDS011;9713;48.140;11.530;2023-03-01T20:38:30;51.97;;;25.47;;
19161;SDS011;9713;48.140;11.530;2023-03-01T20:42:14;49.87;;;24.20;;
19161;SDS011;9713;48.140;11.530;2023-03-01T20:45:57;45.33;;;24.27;;
19161;SDS011;9713;48.140;11.530;2023-03-01T20:49:45;47.67;;;22.80;;
19161;SDS011;9713;48.140;11.530;2023-03-01T20:53:28;49.03;;;23.57;;
19161;SDS011;9713;48.140;11.530;2023-03-01T20:57:10;43.47;;;21.70;;
19161;SDS011;9713;48.140;11.530;2023-03-01T21:00:54;43.90;;;20.83;;
19161;SDS011;9713;48.140;11.530;2023-03-01T21:04:37;42.30;;;19.97;;
19161;SDS011;9713;48.140;11.530;2023-03-01T21:08:20;43.87;;;19.67;;
19161;SDS011;9713;48.140;11.530;2023-03-01T21:12:03;36.73;;;18.23;;
19161;SDS011;9713;48.140;11.530;2023-03-01T21:15:50;37.10;;;17.70;;
19161;SDS011;9713;48.140;11.530;2023-03-01T21:19:36;33.57;;;16.50;;
19161;SDS011;9713;48.140;11.530;2023-03-01T21:23:19;32.83;;;16.37;;
19161;SDS011;9713;48.140;11.530;2023-03-01T21:27:01;34.77;;;16.70;;
19161;SDS011;9713;48.140;11.530;2023-03-01T21:30:46;31.83;;;16.17;;
19161;SDS011;9713;48.140;11.530;2023-03-01T21:34:29;30.83;;;15.57;;
19161;SDS011;9713;48.140;11.530;2023-03-01T21:38:13;32.90;;;16.07;;
19161;SDS011;9713;48.140;11.530;2023-03-01T21:41:57;34.23;;;15.97;;
19161;SDS011;9713;48.140;11.530;2023-03-01T21:45:40;33.53;;;16.37;;
19161;SDS011;9713;48.140;11.530;2023-03-01T21:49:24;32.53;;;16.47;;
19161;SDS011;9713;48.140;11.530;2023-03-01T21:53:07;33.30;;;16.50;;
19161;SDS011;9713;48.140;11.530;2023-03-01T21:56:51;33.83;;;15.87;;
19161;SDS011;9713;48.140;11.530;2023-03-01T22:00:34;32.67;;;15.77;;
19161;SDS011;9713;48.140;11.530;2023-03-01T22:04:19;32.37;;;15.57;;
19161;SDS011;9713;48.140;11.530;2023-03-01T22:08:05;33.43;;;16.90;;
19161;SDS011;9713;48.140;11.530;2023-03-01T22:11:51;33.07;;;16.03;;
19161;SDS011;9713;48.140;11.530;2023-03-01T22:15:39;30.53;;;15.63;;
19161;SDS011;9713;48.140;11.530;2023-03-01T22:19:25;29.73;;;15.23;;
19161;SDS011;9713;48.140;11.530;2023-03-01T22:23:08;31.93;;;15.50;;
19161;SDS011;9713;48.140;11.530;2023-03-01T22:26:52;35.90;;;15.60;;
19161;SDS011;9713;48.140;11.530;2023-03-01T22:30:35;36.20;;;16.63;;
19161;SDS011;9713;48.140;11.530;2023-03-01T22:34:21;36.87;;;17.23;;